Data for 08/12/2014

Time Sea-Level Adjusted Pressure Absolute Pressure Temperature Relative Humidity Dew Point Precipitation   
(mb) (inHg) (mb) (inHg) (C) (F) (%) (C) (F) (mm) (in)
00:05 1024 30.24 853 25.19 22.4 72.4 32 5.3 41.5 0 0
00:10 1024 30.24 853 25.19 22.5 72.5 32 5.1 41.2 0 0
00:15 1024 30.24 853 25.19 22.8 73.1 31 5.1 41.2 0 0
00:20 1024 30.24 853 25.19 22.8 73.1 32 5.4 41.7 0 0
00:25 1024 30.24 853 25.19 22.7 72.8 32 5.3 41.6 0 0
00:30 1024 30.24 853 25.19 22.7 72.8 32 5.3 41.5 0 0
00:35 1024 30.24 853 25.19 22.8 73.1 31 5.2 41.3 0 0
00:40 1024 30.24 853 25.19 23 73.3 31 5.4 41.7 0 0
00:45 1024 30.24 853 25.19 22.9 73.2 31 5.1 41.2 0 0
00:50 1024 30.24 853 25.19 22.8 73.1 31 5.1 41.1 0 0
00:55 1024 30.24 853 25.19 22.8 73.1 31 5.2 41.4 0 0
01:00 1024 30.24 853 25.19 22.6 72.6 33 5.7 42.2 0 0
01:05 1024 30.24 853 25.19 22.4 72.3 31 4.8 40.7 0 0
01:10 1024 30.24 853 25.19 22.7 72.9 31 5.1 41.1 0 0
01:15 1024 30.24 853 25.19 22.5 72.5 32 5.4 41.7 0 0
01:20 1024 30.24 853 25.19 22.2 72 33 5.4 41.7 0 0
01:25 1024 30.24 853 25.19 21.8 71.3 34 5.3 41.6 0 0
01:30 1024 30.24 853 25.19 21.7 71.1 33 5.1 41.3 0 0
01:35 1024 30.24 853 25.19 21.8 71.2 33 5 41.1 0 0
01:40 1024 30.24 853 25.19 21.9 71.4 32 4.8 40.7 0 0
01:45 1024 30.24 853 25.19 22 71.7 33 5 41 0 0
01:50 1024 30.24 853 25.19 22.3 72.1 32 4.8 40.7 0 0
01:55 1024 30.24 853 25.19 22.5 72.4 32 5 41 0 0
02:00 1024 30.24 853 25.19 22.3 72.2 32 5.1 41.1 0 0
02:05 1024 30.24 853 25.19 22.1 71.8 33 5.2 41.4 0 0
02:10 1024 30.24 853 25.19 21.6 70.8 35 5.7 42.3 0 0
02:15 1024 30.24 853 25.19 20.9 69.6 37 5.9 42.5 0 0
02:20 1024 30.24 853 25.19 20.5 68.9 37 5.6 42.1 0 0
02:25 1024 30.24 853 25.19 20.8 69.4 33 4.3 39.8 0 0
02:30 1024 30.24 853 25.19 21.8 71.2 32 4.6 40.3 0 0
02:35 1024 30.24 853 25.19 22 71.6 32 4.9 40.9 0 0
02:40 1024 30.24 853 25.19 21.8 71.3 33 4.8 40.7 0 0
02:45 1024 30.24 853 25.19 21.8 71.2 32 4.7 40.4 0 0
02:50 1024 30.24 853 25.19 21.7 71 33 5.1 41.1 0 0
02:55 1024 30.24 853 25.19 21.1 70.1 37 6 42.7 0 0
03:00 1024 30.24 853 25.19 20.5 69 37 5.4 41.8 0 0
03:05 1024 30.24 853 25.19 20.6 69 37 5.4 41.8 0 0
03:10 1024 30.24 853 25.19 20.4 68.7 38 5.8 42.4 0 0
03:15 1024 30.24 853 25.19 19.9 67.9 39 5.7 42.3 0 0
03:20 1024 30.24 853 25.19 20.1 68.1 38 5.4 41.6 0 0
03:25 1024 30.24 853 25.19 20.3 68.6 37 5.4 41.7 0 0
03:30 1024 30.24 853 25.19 20.1 68.1 40 6.1 43 0 0
03:35 1024 30.24 854 25.22 19.5 67.1 41 6.1 42.9 0 0
03:40 1024 30.24 854 25.22 19.2 66.5 43 6.3 43.3 0 0
03:45 1024 30.24 854 25.22 18.8 65.8 45 6.6 43.8 0 0
03:50 1024 30.24 854 25.22 17.8 64 48 6.9 44.3 0 0
03:55 1024 30.24 854 25.22 17.2 63 49 6.5 43.6 0 0
04:00 1024 30.24 853 25.19 17.1 62.8 49 6.6 43.8 0 0
04:05 1024 30.24 853 25.19 16.8 62.2 50 6.5 43.8 0 0
04:10 1024 30.24 854 25.22 16.7 62 51 6.5 43.8 0 0
04:15 1024 30.24 854 25.22 16.4 61.5 53 6.9 44.4 0 0
04:20 1024 30.24 854 25.22 16.2 61.2 52 6.4 43.4 0 0
04:25 1024 30.24 854 25.22 16.3 61.4 50 6.1 43 0 0
04:30 1024 30.24 853 25.19 16.9 62.3 48 5.9 42.6 0 0
04:35 1024 30.24 853 25.19 17.4 63.3 47 6.1 43 0 0
04:40 1024 30.24 853 25.19 17.9 64.2 44 5.7 42.3 0 0
04:45 1024 30.24 853 25.19 18.1 64.5 47 6.8 44.2 0 0
04:50 1024 30.24 853 25.19 17.1 62.7 48 6.2 43.1 0 0
04:55 1024 30.24 853 25.19 17.1 62.7 47 5.8 42.5 0 0
05:00 1024 30.24 853 25.19 17.5 63.6 45 5.7 42.2 0 0
05:05 1024 30.24 853 25.19 17.4 63.4 46 5.8 42.4 0 0
05:10 1024 30.24 853 25.19 16.7 62.1 51 6.8 44.2 0 0
05:15 1024 30.24 853 25.19 15.5 59.8 53 6.1 42.9 0 0
05:20 1024 30.24 853 25.19 15.3 59.6 52 5.6 42 0 0
05:25 1024 30.24 853 25.19 15.4 59.8 52 5.8 42.4 0 0
05:30 1024 30.24 853 25.19 15.5 60 51 5.6 42.1 0 0
05:35 1024 30.24 854 25.22 15.8 60.4 51 5.8 42.5 0 0
05:40 1024 30.24 854 25.22 15.7 60.3 53 6.2 43.2 0 0
05:45 1024 30.24 853 25.19 15.2 59.4 52 5.5 42 0 0
05:50 1024 30.24 853 25.19 15.7 60.2 49 5 40.9 0 0
05:55 1024 30.24 853 25.19 16.6 61.9 46 5.1 41.2 0 0
06:00 1024 30.24 853 25.19 16.9 62.4 47 5.6 42.1 0 0
06:05 1024 30.24 854 25.22 16.8 62.2 50 6.4 43.5 0 0
06:10 1024 30.24 854 25.22 14.7 58.5 58 6.5 43.7 0 0
06:15 1024 30.24 854 25.22 13.2 55.7 61 5.8 42.4 0 0
06:20 1024 30.24 854 25.22 12.5 54.4 64 5.8 42.5 0 0
06:25 1024 30.24 854 25.22 12 53.7 64 5.4 41.8 0 0
06:30 1024 30.24 854 25.22 12.3 54.1 60 4.8 40.6 0 0
06:35 1024 30.24 854 25.22 13 55.4 62 5.9 42.6 0 0
06:40 1025 30.27 854 25.22 12.5 54.5 64 6 42.8 0 0
06:45 1025 30.27 854 25.22 11.7 53.1 67 5.8 42.4 0 0
06:50 1025 30.27 854 25.22 11.6 52.9 65 5.4 41.7 0 0
06:55 1025 30.27 854 25.22 12.1 53.8 64 5.6 42 0 0
07:00 1025 30.27 854 25.22 13 55.4 58 4.9 40.8 0 0
07:05 1025 30.27 854 25.22 14 57.1 58 5.8 42.5 0 0
07:10 1024 30.24 854 25.22 14.5 58.1 54 5.4 41.8 0 0
07:15 1024 30.24 854 25.22 15.1 59.2 51 5.2 41.3 0 0
07:20 1025 30.27 854 25.22 15.6 60.1 51 5.6 42.2 0 0
07:25 1025 30.27 854 25.22 15.8 60.5 52 6.1 43.1 0 0
07:30 1025 30.27 854 25.22 15.9 60.6 55 6.9 44.4 0 0
07:35 1025 30.27 854 25.22 16.1 61 52 6.5 43.6 0 0
07:40 1025 30.27 854 25.22 16.3 61.4 52 6.5 43.7 0 0
07:45 1024 30.24 854 25.22 17.1 62.8 52 7.3 45.2 0 0
07:50 1024 30.24 854 25.22 17.8 64.1 50 7.4 45.4 0 0
07:55 1024 30.24 854 25.22 18.5 65.3 46 6.8 44.2 0 0
08:00 1024 30.24 854 25.22 18.7 65.7 45 6.8 44.2 0 0
08:05 1024 30.24 854 25.22 18.8 65.8 47 7.3 45.2 0 0
08:10 1024 30.24 854 25.22 19.1 66.3 48 7.9 46.2 0 0
08:15 1024 30.24 854 25.22 19.5 67 46 7.7 45.8 0 0
08:20 1024 30.24 854 25.22 19.8 67.7 45 7.5 45.6 0 0
08:25 1024 30.24 854 25.22 20.2 68.3 42 7 44.6 0 0
08:30 1024 30.24 854 25.22 20.5 68.8 42 7.2 44.9 0 0
08:35 1024 30.24 854 25.22 20.7 69.3 40 6.8 44.2 0 0
08:40 1024 30.24 854 25.22 21.1 69.9 38 6.4 43.4 0 0
08:45 1024 30.24 854 25.22 21.3 70.4 44 8.6 47.5 0 0
08:50 1024 30.24 854 25.22 21.5 70.7 39 7 44.5 0 0
08:55 1024 30.24 853 25.19 21.7 71.1 40 7.9 46.2 0 0
09:00 1024 30.24 853 25.19 22.1 71.7 41 8.5 47.2 0 0
09:05 1024 30.24 853 25.19 22.3 72.2 42 9.1 48.3 0 0
09:10 1024 30.24 853 25.19 22.5 72.5 39 8.1 46.5 0 0
09:15 1024 30.24 853 25.19 22.8 73.1 33 5.9 42.6 0 0
09:20 1024 30.24 853 25.19 23.1 73.6 34 6.6 43.8 0 0
09:25 1024 30.24 853 25.19 23.2 73.7 32 5.9 42.5 0 0
09:30 1024 30.24 853 25.19 23.3 74 35 7.2 44.9 0 0
09:35 1024 30.24 853 25.19 23.7 74.6 33 6.5 43.6 0 0
09:40 1024 30.24 853 25.19 24 75.1 32 6.6 43.9 0 0
09:45 1024 30.24 853 25.19 24.3 75.8 31 6.2 43.2 0 0
09:50 1024 30.24 853 25.19 24.6 76.2 33 7.5 45.4 0 0
09:55 1024 30.24 853 25.19 25.1 77.2 30 6.4 43.4 0 0
10:00 1024 30.24 853 25.19 25.3 77.6 32 7.7 45.9 0 0
10:05 1024 30.24 853 25.19 25.2 77.4 33 7.9 46.2 0 0
10:10 1024 30.24 853 25.19 25.3 77.5 32 7.6 45.7 0 0
10:15 1024 30.24 853 25.19 25.3 77.5 32 7.7 45.8 0 0
10:20 1023 30.21 853 25.19 25.5 77.9 35 9.3 48.7 0 0
10:25 1023 30.21 853 25.19 25.6 78.1 31 7.5 45.4 0 0
10:30 1023 30.21 853 25.19 25.7 78.3 36 9.8 49.6 0 0
10:35 1023 30.21 852 25.16 25.8 78.5 32 8 46.4 0 0
10:40 1023 30.21 852 25.16 25.9 78.6 31 7.9 46.2 0 0
10:45 1023 30.21 852 25.16 25.8 78.4 32 8.3 46.9 0 0
10:50 1023 30.21 852 25.16 25.8 78.4 32 8.3 46.9 0 0
10:55 1023 30.21 852 25.16 26 78.8 32 8.3 46.9 0 0
11:00 1023 30.21 852 25.16 25.9 78.7 33 8.5 47.3 0 0
11:05 1023 30.21 852 25.16 26.1 78.9 31 8.1 46.6 0 0
11:10 1023 30.21 852 25.16 26.3 79.3 32 8.7 47.7 0 0
11:15 1023 30.21 852 25.16 26.6 79.8 32 8.9 48 0 0
11:20 1023 30.21 852 25.16 27 80.5 29 7.6 45.7 0 0
11:25 1023 30.21 852 25.16 27.1 80.7 32 9.4 49 0 0
11:30 1023 30.21 852 25.16 27.3 81.1 30 8.4 47.2 0 0
11:35 1023 30.21 852 25.16 27.2 80.9 31 8.7 47.6 0 0
11:40 1023 30.21 852 25.16 27 80.5 32 9.1 48.4 0 0
11:45 1023 30.21 852 25.16 27.5 81.6 30 8.6 47.5 0 0
11:50 1023 30.21 852 25.16 27.7 81.9 30 8.7 47.6 0 0
11:55 1023 30.21 852 25.16 27.9 82.3 28 7.9 46.3 0 0
12:00 1023 30.21 852 25.16 28.2 82.7 28 8.2 46.7 0 0
12:05 1023 30.21 852 25.16 28.4 83.2 27 7.8 46 0 0
12:10 1023 30.21 852 25.16 28.7 83.6 30 9.5 49 0 0
12:15 1022 30.18 852 25.16 28.8 83.8 29 9.2 48.5 0 0
12:20 1022 30.18 852 25.16 28.6 83.5 27 7.9 46.3 0 0
12:25 1022 30.18 852 25.16 28.8 83.8 30 9.6 49.2 0 0
12:30 1022 30.18 851 25.13 29.3 84.7 28 9.3 48.7 0 0
12:35 1022 30.18 851 25.13 29.8 85.7 25 7.8 46 0 0
12:40 1022 30.18 851 25.13 30 86 25 8 46.5 0 0
12:45 1022 30.18 851 25.13 30.1 86.2 27 9.3 48.7 0 0
12:50 1022 30.18 851 25.13 30.3 86.6 26 8.9 48 0 0
12:55 1022 30.18 851 25.13 30.6 87 21 6.4 43.5 0 0
13:00 1022 30.18 851 25.13 30.2 86.4 24 7.8 46 0 0
13:05 1022 30.18 851 25.13 30.1 86.2 22 6.2 43.2 0 0
13:10 1022 30.18 851 25.13 30.5 87 24 8 46.4 0 0
13:15 1022 30.18 851 25.13 30.6 87.1 24 7.9 46.3 0 0
13:20 1022 30.18 851 25.13 31.1 88 20 5.7 42.2 0 0
13:25 1022 30.18 851 25.13 31.4 88.6 17 3.6 38.5 0 0
13:30 1022 30.18 851 25.13 31.6 88.9 16 3.3 38 0 0
13:35 1022 30.18 851 25.13 31.7 89.1 21 7.3 45.1 0 0
13:40 1022 30.18 851 25.13 32.3 90.2 22 8.1 46.6 0 0
13:45 1021 30.15 851 25.13 32.2 90 17 4.5 40.2 0 0
13:50 1022 30.18 851 25.13 31 87.8 18 4.5 40.1 0 0
13:55 1022 30.18 851 25.13 30.4 86.7 21 6.3 43.3 0 0
14:00 1022 30.18 851 25.13 29.6 85.2 22 6.1 42.9 0 0
14:05 1021 30.15 851 25.13 29.1 84.4 23 6.3 43.4 0 0
14:10 1022 30.18 851 25.13 28.9 84 32 10.7 51.2 0 0
14:15 1022 30.18 851 25.13 27.6 81.6 32 9.5 49 0 0
14:20 1022 30.18 851 25.13 26.3 79.4 32 8.7 47.6 0 0
14:25 1022 30.18 851 25.13 25.8 78.5 28 6 42.7 0 0
14:30 1022 30.18 851 25.13 26 78.8 28 6.4 43.5 0 0
14:35 1022 30.18 851 25.13 24.8 76.7 44 12.1 53.8 .2 0.008
14:40 1022 30.18 851 25.13 21.9 71.4 53 12.1 53.8 .6 0.024
14:45 1022 30.18 851 25.13 21.9 71.3 49 10.8 51.4 0 0
14:50 1022 30.18 851 25.13 22.9 73.1 47 11.2 52.2 0 0
14:55 1022 30.18 851 25.13 23.9 75.1 46 11.7 53.1 0 0
15:00 1022 30.18 851 25.13 24.8 76.6 42 11.1 52.1 0 0
15:05 1022 30.18 851 25.13 25.7 78.3 44 12.8 55 0 0
15:10 1022 30.18 851 25.13 25.2 77.3 44 12.3 54.2 0 0
15:15 1022 30.18 851 25.13 25.2 77.4 34 8.5 47.3 0 0
15:20 1022 30.18 851 25.13 25.8 78.5 33 8.6 47.5 0 0
15:25 1022 30.18 851 25.13 26.3 79.3 40 12 53.6 0 0
15:30 1022 30.18 851 25.13 26.7 80 30 8.1 46.5 0 0
15:35 1022 30.18 851 25.13 26.9 80.3 39 11.9 53.4 0 0
15:40 1022 30.18 851 25.13 26.8 80.3 43 13.4 56.1 0 0
15:45 1022 30.18 851 25.13 26.4 79.5 36 10.5 50.8 0 0
15:50 1022 30.18 851 25.13 25.9 78.7 37 10.2 50.4 0 0
15:55 1022 30.18 851 25.13 25.9 78.7 43 12.5 54.4 0 0
16:00 1022 30.18 851 25.13 25.7 78.2 50 14.7 58.5 0 0
16:05 1022 30.18 851 25.13 25.3 77.5 47 13.3 56 0 0
16:10 1022 30.18 851 25.13 26 78.7 42 12.3 54.1 0 0
16:15 1022 30.18 851 25.13 27.5 81.5 35 11 51.8 0 0
16:20 1022 30.18 851 25.13 27.5 81.5 31 9.1 48.4 0 0
16:25 1022 30.18 851 25.13 26.8 80.3 31 8.3 47 0 0
16:30 1022 30.18 851 25.13 27.2 81 33 9.7 49.4 0 0
16:35 1022 30.18 851 25.13 27.1 80.8 35 10.7 51.3 0 0
16:40 1022 30.18 851 25.13 27.6 81.7 32 9.5 49.2 0 0
16:45 1022 30.18 851 25.13 27.3 81.1 33 9.8 49.7 0 0
16:50 1022 30.18 851 25.13 26.1 79 35 9.6 49.3 0 0
16:55 1022 30.18 851 25.13 25.7 78.2 41 11.7 53 0 0
17:00 1022 30.18 851 25.13 24.7 76.5 49 13.6 56.5 0 0
17:05 1022 30.18 851 25.13 23.8 74.9 54 14.1 57.3 0 0
17:10 1022 30.18 851 25.13 23.5 74.3 58 14.9 58.9 0 0
17:15 1022 30.18 851 25.13 23.6 74.5 52 13.4 56.1 0 0
17:20 1022 30.18 851 25.13 23.8 74.8 50 12.7 54.9 0 0
17:25 1022 30.18 851 25.13 24.4 75.9 47 12.6 54.7 0 0
17:30 1022 30.18 851 25.13 25.4 77.6 40 11.2 52.1 0 0
17:35 1022 30.18 851 25.13 26.4 79.5 44 13.5 56.3 0 0
17:40 1022 30.18 851 25.13 26.4 79.4 37 10.6 51 0 0
17:45 1022 30.18 851 25.13 25.7 78.3 43 12.4 54.4 0 0
17:50 1022 30.18 851 25.13 25.4 77.6 48 13.6 56.5 0 0
17:55 1022 30.18 851 25.13 24.9 76.8 55 15.4 59.6 0 0
18:00 1022 30.18 851 25.13 24.6 76.3 53 14.6 58.4 0 0
18:05 1022 30.18 851 25.13 24.5 76.2 53 14.6 58.3 0 0
18:10 1022 30.18 851 25.13 24.4 75.9 51 13.9 56.9 0 0
18:15 1022 30.18 851 25.13 23.9 75.1 55 14.6 58.2 0 0
18:20 1022 30.18 851 25.13 23.6 74.4 54 14 57.1 0 0
18:25 1022 30.18 851 25.13 23.5 74.2 52 13.2 55.7 0 0
18:30 1022 30.18 851 25.13 24 75.2 47 12.3 54.1 0 0
18:35 1022 30.18 851 25.13 24.3 75.7 47 12.3 54.2 0 0
18:40 1022 30.18 851 25.13 24.9 76.8 45 12.5 54.5 0 0
18:45 1021 30.15 851 25.13 24.9 76.8 42 11.3 52.3 0 0
18:50 1021 30.15 851 25.13 24.8 76.7 45 12.3 54.2 0 0
18:55 1022 30.18 851 25.13 24.1 75.3 46 11.9 53.4 0 0
19:00 1022 30.18 851 25.13 23.9 75.1 47 12.2 54 0 0
19:05 1022 30.18 851 25.13 23.8 74.9 44 11 51.8 0 0
19:10 1022 30.18 851 25.13 23.9 75.1 48 12.5 54.5 0 0
19:15 1022 30.18 851 25.13 23.7 74.6 47 11.7 53.1 0 0
19:20 1021 30.15 851 25.13 23.7 74.6 48 12 53.7 0 0
19:25 1021 30.15 851 25.13 23.7 74.7 41 9.8 49.7 0 0
19:30 1021 30.15 851 25.13 23.7 74.7 44 10.8 51.4 0 0
19:35 1021 30.15 851 25.13 23.6 74.4 45 11.1 52.1 0 0
19:40 1022 30.18 851 25.13 23.4 74.2 46 11.5 52.6 0 0
19:45 1022 30.18 851 25.13 23 73.4 47 11.4 52.6 0 0
19:50 1022 30.18 851 25.13 22.8 73 47 11 51.9 0 0
19:55 1022 30.18 851 25.13 22.9 73.2 46 10.8 51.4 0 0
20:00 1022 30.18 851 25.13 22.8 73 41 9 48.2 0 0
20:05 1022 30.18 851 25.13 23.1 73.5 38 8.2 46.8 0 0
20:10 1022 30.18 851 25.13 23 73.3 39 8.5 47.2 0 0
20:15 1022 30.18 851 25.13 22.6 72.7 45 10.3 50.6 0 0
20:20 1022 30.18 851 25.13 21.6 70.9 48 10.3 50.6 0 0
20:25 1022 30.18 851 25.13 21.1 70 48 9.8 49.6 0 0
20:30 1022 30.18 851 25.13 21.1 70 49 10 50 0 0
20:35 1022 30.18 851 25.13 20.7 69.3 54 11.1 52 0 0
20:40 1022 30.18 851 25.13 20.5 68.9 50 9.8 49.6 0 0
20:45 1022 30.18 851 25.13 21.4 70.4 45 9.2 48.6 0 0
20:50 1022 30.18 851 25.13 21.5 70.6 49 10.3 50.6 0 0
20:55 1022 30.18 851 25.13 20.9 69.7 50 10.1 50.2 0 0
21:00 1022 30.18 851 25.13 20.6 69 51 10.2 50.3 0 0
21:05 1022 30.18 851 25.13 20 68.1 54 10.5 50.9 0 0
21:10 1022 30.18 851 25.13 19.7 67.5 56 10.7 51.3 0 0
21:15 1022 30.18 851 25.13 19.3 66.8 58 11 51.7 0 0
21:20 1022 30.18 851 25.13 19.2 66.6 59 11.2 52.2 0 0
21:25 1022 30.18 851 25.13 19.1 66.4 59 11.1 51.9 0 0
21:30 1022 30.18 851 25.13 19 66.1 60 11 51.8 0 0
21:35 1022 30.18 851 25.13 18.9 66 60 11.2 52.1 0 0
21:40 1022 30.18 851 25.13 18.6 65.4 61 11 51.8 0 0
21:45 1022 30.18 851 25.13 18.6 65.4 60 10.9 51.6 0 0
21:50 1022 30.18 851 25.13 18.3 64.9 65 11.7 53.1 0 0
21:55 1022 30.18 851 25.13 17.8 64.1 65 11.3 52.3 0 0
22:00 1022 30.18 851 25.13 17.3 63.2 68 11.5 52.7 0 0
22:05 1022 30.18 851 25.13 16.6 61.8 75 12.1 53.7 0 0
22:10 1022 30.18 851 25.13 15.8 60.4 76 11.5 52.7 0 0
22:15 1022 30.18 851 25.13 16.3 61.3 71 11.1 52 0 0
22:20 1022 30.18 851 25.13 16.8 62.2 71 11.5 52.7 0 0
22:25 1022 30.18 851 25.13 16.9 62.5 68 11.1 51.9 0 0
22:30 1022 30.18 851 25.13 17.4 63.3 66 10.9 51.7 0 0
22:35 1022 30.18 851 25.13 17.5 63.6 65 11 51.8 0 0
22:40 1022 30.18 851 25.13 17.4 63.3 67 11.4 52.5 0 0
22:45 1022 30.18 851 25.13 17 62.7 70 11.7 53 0 0
22:50 1022 30.18 851 25.13 16.7 62 70 11.2 52.2 0 0
22:55 1022 30.18 852 25.16 16.9 62.4 69 11.3 52.4 0 0
23:00 1022 30.18 852 25.16 16.7 62 70 11.2 52.2 0 0
23:05 1022 30.18 852 25.16 16.4 61.5 74 11.7 53.1 0 0
23:10 1022 30.18 852 25.16 16 60.9 75 11.6 52.9 0 0
23:15 1022 30.18 852 25.16 15.7 60.3 78 11.9 53.5 0 0
23:20 1022 30.18 852 25.16 15.2 59.4 80 11.8 53.3 0 0
23:25 1022 30.18 852 25.16 15.5 59.9 78 11.7 53 0 0
23:30 1022 30.18 852 25.16 15.8 60.4 76 11.7 53 0 0
23:35 1022 30.18 851 25.13 15.8 60.4 75 11.4 52.6 0 0
23:40 1022 30.18 851 25.13 16 60.7 74 11.3 52.4 0 0
23:45 1022 30.18 851 25.13 16.2 61.2 74 11.6 52.9 0 0
23:50 1022 30.18 851 25.13 16 60.8 74 11.4 52.5 0 0
23:55 1022 30.18 851 25.13 16.1 61 73 11.3 52.4 0 0
24:00 1022 30.18 851 25.13 16.2 61.1 75 11.7 53.1 0 0